Time;durP1;ratioP1;P1;durP2;ratioP2;P2;SDS_P1;SDS_P2;PMS_P1;PMS_P2;Temp;Humidity;BMP_temperature;BMP_pressure;BME280_temperature;BME280_humidity;BME280_pressure;Samples;Min_cycle;Max_cycle;Signal;HPM_P1;HPM_P2
2022/09/11 00:04:35;;;;;;;14.68;11.98;;;22.40;99.90;;;;;;10224788;29;20638;-94
2022/09/11 00:09:37;;;;;;;14.48;12.52;;;22.40;99.90;;;;;;10211976;29;20254;-93
2022/09/11 00:14:40;;;;;;;12.98;11.00;;;22.40;99.90;;;;;;10217944;28;20198;-91
2022/09/11 00:19:42;;;;;;;14.80;12.20;;;22.40;99.90;;;;;;10234253;29;20218;-93
2022/09/11 00:24:45;;;;;;;12.95;11.32;;;22.40;99.90;;;;;;10247910;28;20210;-94
2022/09/11 00:29:48;;;;;;;14.85;12.18;;;22.40;99.90;;;;;;10249031;28;20257;-93
2022/09/11 00:34:51;;;;;;;13.20;11.63;;;22.40;99.90;;;;;;10233337;28;20289;-94
2022/09/11 00:39:53;;;;;;;14.27;12.77;;;22.40;99.90;;;;;;10232104;28;20552;-91
2022/09/11 00:45:01;;;;;;;13.82;11.90;;;22.40;99.90;;;;;;10226203;29;20262;-93
2022/09/11 00:50:15;;;;;;;14.80;12.63;;;22.40;99.90;;;;;;10193510;29;20313;-93
2022/09/11 00:55:26;;;;;;;13.98;11.95;;;22.40;99.90;;;;;;10180561;29;20607;-93
2022/09/11 01:00:28;;;;;;;15.77;12.20;;;22.40;99.90;;;;;;10219647;29;20309;-93
2022/09/11 01:05:34;;;;;;;13.10;11.77;;;22.30;99.90;;;;;;10208151;28;20234;-93
2022/09/11 01:10:59;;;;;;;15.98;11.40;;;22.30;99.90;;;;;;10232510;29;20249;-93
2022/09/11 01:16:14;;;;;;;16.42;12.73;;;22.30;99.90;;;;;;10230418;29;20202;-94
2022/09/11 01:21:39;;;;;;;12.07;10.73;;;22.30;99.90;;;;;;10231854;28;20206;-93
2022/09/11 01:27:09;;;;;;;13.77;11.65;;;22.30;99.90;;;;;;10231043;29;20238;-94
2022/09/11 01:32:31;;;;;;;12.82;11.23;;;22.30;99.90;;;;;;10257154;28;20718;-93
2022/09/11 01:38:02;;;;;;;13.13;11.48;;;22.30;99.90;;;;;;10272179;28;20218;-93
2022/09/11 01:43:14;;;;;;;12.13;10.93;;;22.20;99.90;;;;;;10245898;29;20230;-94
2022/09/11 01:48:21;;;;;;;13.75;12.18;;;22.20;99.90;;;;;;10231624;28;20265;-94
2022/09/11 01:53:31;;;;;;;13.38;11.95;;;22.20;99.90;;;;;;10230825;28;20688;-93
2022/09/11 01:58:35;;;;;;;15.60;11.82;;;22.20;99.90;;;;;;10223329;29;20266;-94
2022/09/11 02:03:47;;;;;;;12.77;11.48;;;22.20;99.90;;;;;;10219529;29;20577;-94
2022/09/11 02:08:59;;;;;;;12.55;11.35;;;22.20;99.90;;;;;;10236037;29;20257;-93
2022/09/11 02:14:15;;;;;;;13.98;12.10;;;22.20;99.90;;;;;;10239183;29;20230;-92
2022/09/11 02:19:23;;;;;;;13.70;11.88;;;22.20;99.90;;;;;;10222981;29;20308;-93
2022/09/11 02:24:26;;;;;;;14.50;12.27;;;22.20;99.90;;;;;;10217120;29;20238;-93
2022/09/11 02:29:29;;;;;;;13.55;12.15;;;22.20;99.90;;;;;;10198467;29;20324;-94
2022/09/11 02:34:35;;;;;;;14.20;11.68;;;22.10;99.90;;;;;;10229300;29;20684;-94
2022/09/11 02:40:02;;;;;;;13.77;12.25;;;22.10;99.90;;;;;;10237977;28;20230;-91
2022/09/11 02:45:22;;;;;;;12.85;11.50;;;22.10;99.90;;;;;;10237757;28;20699;-94
2022/09/11 02:50:57;;;;;;;13.15;11.82;;;22.10;99.90;;;;;;10215496;29;20270;-92
2022/09/11 02:56:28;;;;;;;14.02;12.07;;;22.10;99.90;;;;;;10237390;28;20257;-93
2022/09/11 03:01:45;;;;;;;13.35;11.90;;;22.10;99.90;;;;;;10236400;28;20194;-94
2022/09/11 03:06:51;;;;;;;13.50;12.07;;;22.10;99.90;;;;;;10236532;29;20237;-93
2022/09/11 03:11:54;;;;;;;13.00;11.60;;;22.00;99.90;;;;;;10253800;28;20308;-93
2022/09/11 03:16:57;;;;;;;12.90;11.30;;;22.00;99.90;;;;;;10234899;28;20269;-94
2022/09/11 03:22:01;;;;;;;13.48;11.80;;;22.00;99.90;;;;;;10235158;28;20241;-92
2022/09/11 03:27:04;;;;;;;12.73;11.43;;;22.00;99.90;;;;;;10220571;28;20257;-93
2022/09/11 03:32:08;;;;;;;12.80;11.40;;;22.00;99.90;;;;;;10236166;28;20718;-92
2022/09/11 03:37:12;;;;;;;14.07;12.45;;;22.00;99.90;;;;;;10233785;29;20237;-93
2022/09/11 03:42:15;;;;;;;14.43;12.18;;;21.90;99.90;;;;;;10234395;29;20230;-93
2022/09/11 03:47:19;;;;;;;12.88;11.40;;;21.90;99.90;;;;;;10234862;28;20242;-92
2022/09/11 03:52:21;;;;;;;15.13;11.98;;;21.90;99.90;;;;;;10235142;28;20242;-93
2022/09/11 03:57:25;;;;;;;12.13;10.95;;;21.90;99.90;;;;;;10234447;29;20762;-92
2022/09/11 04:02:28;;;;;;;13.25;11.85;;;22.00;99.90;;;;;;10215562;28;20207;-93
2022/09/11 04:07:31;;;;;;;13.32;11.93;;;21.90;99.90;;;;;;10241629;29;20289;-92
2022/09/11 04:12:34;;;;;;;12.82;11.52;;;21.90;99.90;;;;;;10242935;29;20203;-92
2022/09/11 04:17:37;;;;;;;13.75;12.10;;;21.90;99.90;;;;;;10241678;28;20246;-93
2022/09/11 04:22:40;;;;;;;15.10;13.48;;;21.90;99.90;;;;;;10233788;29;20682;-93
2022/09/11 04:27:43;;;;;;;14.20;12.30;;;21.90;99.90;;;;;;10233341;28;20743;-93
2022/09/11 04:32:49;;;;;;;14.18;12.13;;;21.90;99.90;;;;;;10204562;29;20298;-94
2022/09/11 04:37:52;;;;;;;13.40;12.00;;;21.90;99.90;;;;;;10192534;29;20681;-93
2022/09/11 04:42:55;;;;;;;15.00;12.32;;;21.90;99.90;;;;;;10168486;29;20310;-93
2022/09/11 04:47:59;;;;;;;13.00;11.60;;;21.90;99.90;;;;;;10192105;29;20262;-92
2022/09/11 04:53:03;;;;;;;12.45;10.88;;;21.80;99.90;;;;;;10193265;29;20239;-92
2022/09/11 04:58:05;;;;;;;13.68;12.20;;;21.90;99.90;;;;;;10192901;29;20247;-92
2022/09/11 05:03:08;;;;;;;14.18;12.45;;;21.90;99.90;;;;;;10191238;29;20314;-92
2022/09/11 05:08:11;;;;;;;13.90;12.25;;;21.90;99.90;;;;;;10192872;29;20246;-94
2022/09/11 05:13:13;;;;;;;14.13;12.05;;;21.90;99.90;;;;;;10192333;29;20243;-93
2022/09/11 05:18:16;;;;;;;14.18;12.68;;;21.80;99.90;;;;;;10188620;29;20282;-91
2022/09/11 05:23:19;;;;;;;13.93;12.32;;;21.80;99.90;;;;;;10192322;29;20688;-93
2022/09/11 05:28:21;;;;;;;13.07;11.70;;;21.80;99.90;;;;;;10191447;29;20294;-93
2022/09/11 05:33:26;;;;;;;13.50;11.93;;;21.80;99.90;;;;;;10190935;29;20866;-92
2022/09/11 05:38:28;;;;;;;12.80;11.50;;;21.80;99.90;;;;;;10191955;29;20288;-93
2022/09/11 05:43:32;;;;;;;14.23;12.38;;;21.80;99.90;;;;;;10191395;29;20249;-94
2022/09/11 05:48:37;;;;;;;13.55;12.15;;;21.80;99.90;;;;;;10173361;29;20284;-93
2022/09/11 05:53:41;;;;;;;14.95;12.40;;;21.90;99.90;;;;;;10191505;29;20243;-92
2022/09/11 05:58:47;;;;;;;13.95;12.38;;;21.90;99.90;;;;;;10191388;29;20706;-93
2022/09/11 06:03:51;;;;;;;14.07;11.10;;;21.80;99.90;;;;;;10173170;29;20231;-92
2022/09/11 06:08:56;;;;;;;13.88;12.10;;;21.60;99.90;;;;;;10190077;29;20262;-92
2022/09/11 06:14:00;;;;;;;14.20;12.18;;;21.70;99.90;;;;;;10191094;29;20203;-92
2022/09/11 06:19:04;;;;;;;14.40;10.40;;;21.80;99.90;;;;;;10200071;29;20218;-91
2022/09/11 06:24:07;;;;;;;14.48;12.35;;;21.50;99.90;;;;;;10165912;29;20219;-92
2022/09/11 06:29:13;;;;;;;11.93;10.63;;;21.50;99.90;;;;;;10195150;29;20226;-92
2022/09/11 06:34:22;;;;;;;12.32;10.93;;;21.20;99.90;;;;;;10213296;29;20280;-91
2022/09/11 06:39:25;;;;;;;15.95;12.52;;;21.80;99.90;;;;;;10213404;29;20242;-91
2022/09/11 06:44:31;;;;;;;13.73;12.32;;;21.40;99.90;;;;;;10200956;29;20717;-91
2022/09/11 06:49:36;;;;;;;12.38;11.10;;;20.80;99.90;;;;;;10203793;29;20747;-91
2022/09/11 06:55:12;;;;;;;13.57;12.23;;;21.10;99.90;;;;;;10206553;29;20301;-92
2022/09/11 07:00:20;;;;;;;14.57;12.15;;;21.20;99.90;;;;;;10195136;29;20215;-92
2022/09/11 07:05:24;;;;;;;14.18;12.35;;;21.40;99.90;;;;;;10180982;29;20219;-92
2022/09/11 07:10:27;;;;;;;13.77;11.68;;;21.50;99.90;;;;;;10195053;29;20250;-90
2022/09/11 07:15:33;;;;;;;13.10;11.38;;;20.90;99.90;;;;;;10211335;29;20195;-91
2022/09/11 07:20:41;;;;;;;12.70;9.35;;;21.30;99.90;;;;;;10208304;29;20242;-91
2022/09/11 07:25:44;;;;;;;14.05;12.60;;;21.50;99.90;;;;;;10210031;29;20227;-91
2022/09/11 07:30:48;;;;;;;12.07;10.63;;;21.70;99.90;;;;;;10222172;28;20806;-91
2022/09/11 07:35:51;;;;;;;13.00;11.40;;;21.70;99.90;;;;;;10234709;28;20566;-90
2022/09/11 07:40:54;;;;;;;12.07;10.75;;;21.80;99.90;;;;;;10234739;28;20617;-92
2022/09/11 07:45:57;;;;;;;13.15;11.75;;;21.60;99.90;;;;;;10230795;28;20309;-92
2022/09/11 07:51:06;;;;;;;11.32;10.23;;;21.70;99.90;;;;;;10199595;29;20266;-91
2022/09/11 07:56:17;;;;;;;13.57;12.18;;;21.70;99.90;;;;;;10234329;29;20750;-91
2022/09/11 08:01:28;;;;;;;12.00;9.27;;;21.50;99.90;;;;;;10233311;28;20269;-91
2022/09/11 08:06:35;;;;;;;12.23;11.07;;;21.10;99.90;;;;;;10232468;29;20241;-91
2022/09/11 08:11:47;;;;;;;12.13;10.98;;;21.80;99.90;;;;;;10233861;29;20269;-92
2022/09/11 08:16:52;;;;;;;9.77;8.63;;;20.90;99.90;;;;;;10232408;28;20258;-91
2022/09/11 08:21:55;;;;;;;12.15;10.95;;;21.20;99.90;;;;;;10222938;29;20631;-91
2022/09/11 08:26:58;;;;;;;13.95;12.25;;;21.80;99.90;;;;;;10220941;29;20569;-91
2022/09/11 08:32:02;;;;;;;10.90;9.77;;;21.20;99.90;;;;;;10233250;28;20265;-91
2022/09/11 08:37:09;;;;;;;13.82;10.35;;;21.00;99.90;;;;;;10231961;29;20245;-92
2022/09/11 08:42:15;;;;;;;13.25;11.85;;;21.30;99.90;;;;;;10232243;28;20214;-92
2022/09/11 08:47:25;;;;;;;13.98;10.75;;;20.20;99.90;;;;;;10234718;28;20217;-91
2022/09/11 08:52:31;;;;;;;12.30;10.43;;;21.20;99.90;;;;;;10263408;28;20261;-91
2022/09/11 08:58:03;;;;;;;13.00;8.73;;;21.20;99.90;;;;;;10272563;28;20581;-91
2022/09/11 09:03:15;;;;;;;11.65;10.18;;;21.20;99.90;;;;;;10228511;28;20242;-91
2022/09/11 09:08:36;;;;;;;9.82;8.85;;;20.20;99.90;;;;;;10232040;28;20210;-92
2022/09/11 09:14:04;;;;;;;13.13;11.68;;;21.10;99.90;;;;;;10231247;29;20285;-91
2022/09/11 09:19:14;;;;;;;7.40;6.28;;;20.70;99.90;;;;;;10230683;29;20300;-92
2022/09/11 09:24:18;;;;;;;5.57;4.57;;;20.30;99.90;;;;;;10231164;28;20237;-91
2022/09/11 09:29:34;;;;;;;12.50;9.40;;;16.90;99.90;;;;;;10231384;28;20650;-93
2022/09/11 09:34:40;;;;;;;14.33;7.83;;;18.60;99.90;;;;;;10225267;28;20207;-91
2022/09/11 09:39:47;;;;;;;7.47;6.03;;;18.40;99.90;;;;;;10227327;29;20265;-92
2022/09/11 09:45:16;;;;;;;5.90;4.53;;;20.20;99.90;;;;;;10217192;29;20203;-92
2022/09/11 09:50:28;;;;;;;8.90;4.67;;;17.20;99.90;;;;;;10195640;29;20261;-91
2022/09/11 09:55:33;;;;;;;129.00;19.47;;;16.20;99.90;;;;;;10230420;28;20284;-92
2022/09/11 10:00:36;;;;;;;153.10;22.30;;;16.50;99.90;;;;;;10224699;29;20229;-91
2022/09/11 10:05:43;;;;;;;130.83;22.20;;;19.70;99.90;;;;;;10230175;28;20762;-92
2022/09/11 10:10:57;;;;;;;50.93;10.20;;;;;;;;;;10221136;28;20261;-92
2022/09/11 10:16:02;;;;;;;71.82;13.40;;;20.30;99.90;;;;;;10252172;28;20230;-92
2022/09/11 10:21:11;;;;;;;57.88;10.45;;;20.20;99.90;;;;;;10222003;29;20261;-93
2022/09/11 10:26:18;;;;;;;85.25;16.08;;;20.60;99.90;;;;;;10228608;29;20241;-93
2022/09/11 10:31:21;;;;;;;65.88;12.57;;;21.40;99.90;;;;;;10232737;28;20774;-92
2022/09/11 10:36:26;;;;;;;49.13;10.95;;;20.00;99.90;;;;;;10230133;28;20671;-93
2022/09/11 10:41:33;;;;;;;39.65;9.27;;;20.80;99.90;;;;;;10270813;28;20226;-91
2022/09/11 10:46:36;;;;;;;41.30;9.40;;;20.30;99.90;;;;;;10236506;28;20288;-90
2022/09/11 10:52:08;;;;;;;98.30;16.65;;;19.70;99.90;;;;;;10246676;28;20261;-90
2022/09/11 10:57:19;;;;;;;63.75;14.10;;;20.50;99.90;;;;;;10234812;29;20233;-91
2022/09/11 11:02:30;;;;;;;53.75;13.23;;;20.40;99.90;;;;;;10235253;28;20238;-91
2022/09/11 11:08:14;;;;;;;45.47;11.25;;;21.10;99.90;;;;;;10203381;29;20246;-92
2022/09/11 11:13:35;;;;;;;48.90;14.52;;;20.80;99.90;;;;;;10214725;28;21008;-93
2022/09/11 11:19:01;;;;;;;27.23;8.13;;;21.20;99.90;;;;;;10251920;28;20711;-92
2022/09/11 11:24:45;;;;;;;14.55;5.25;;;20.40;99.90;;;;;;10229199;28;20312;-93
2022/09/11 11:30:11;;;;;;;34.13;10.93;;;20.10;99.90;;;;;;10252445;28;20269;-93
2022/09/11 11:35:32;;;;;;;5.15;4.63;;;20.80;99.90;;;;;;10233102;28;20250;-93
2022/09/11 11:40:46;;;;;;;31.13;10.40;;;20.40;99.90;;;;;;10248518;28;20236;-93
2022/09/11 11:46:09;;;;;;;13.32;5.25;;;20.80;99.90;;;;;;10234556;28;20291;-92
2022/09/11 11:51:17;;;;;;;32.67;10.10;;;21.30;99.90;;;;;;10230397;28;20242;-92
2022/09/11 11:56:43;;;;;;;39.08;10.93;;;21.40;99.90;;;;;;9536259;28;10000726;-91
2022/09/11 12:01:54;;;;;;;36.08;9.85;;;20.90;99.90;;;;;;10217439;28;20485;-91
2022/09/11 12:06:58;;;;;;;32.33;11.00;;;21.30;99.90;;;;;;10238307;28;20233;-91
2022/09/11 12:12:06;;;;;;;4.63;4.22;;;21.10;99.90;;;;;;10229381;28;20257;-91
2022/09/11 12:17:23;;;;;;;10.32;5.13;;;20.10;99.90;;;;;;10222006;28;20246;-96
2022/09/11 12:22:37;;;;;;;6.45;4.40;;;19.50;99.90;;;;;;10211562;29;20237;-92
2022/09/11 12:27:53;;;;;;;6.47;4.07;;;18.50;99.90;;;;;;10193842;29;20255;-93
2022/09/11 12:32:59;;;;;;;7.70;4.25;;;20.40;99.90;;;;;;10206426;28;20312;-92
2022/09/11 12:38:07;;;;;;;6.72;5.25;;;20.20;99.90;;;;;;10248531;28;20234;-93
2022/09/11 12:43:25;;;;;;;5.90;4.25;;;18.10;99.90;;;;;;10232676;29;20262;-93
2022/09/11 12:48:44;;;;;;;6.03;4.37;;;19.70;99.90;;;;;;10243086;28;20592;-94
2022/09/11 12:54:20;;;;;;;5.53;4.30;;;18.20;99.90;;;;;;10236380;28;20219;-93
2022/09/11 12:59:36;;;;;;;4.87;4.43;;;20.90;99.90;;;;;;10240448;28;20241;-93
2022/09/11 13:04:42;;;;;;;6.55;4.88;;;19.20;99.90;;;;;;10244630;28;20210;-93
2022/09/11 13:09:48;;;;;;;5.13;4.63;;;18.30;99.90;;;;;;10232172;28;20250;-92
2022/09/11 13:14:58;;;;;;;7.40;4.27;;;20.10;99.90;;;;;;10249784;28;20210;-92
2022/09/11 13:20:03;;;;;;;4.93;4.43;;;20.30;99.90;;;;;;10248667;28;20269;-92
2022/09/11 13:25:21;;;;;;;4.93;4.43;;;19.70;99.90;;;;;;10248354;28;20241;-91
2022/09/11 13:30:25;;;;;;;5.53;5.03;;;18.60;99.90;;;;;;10234849;28;20292;-92
2022/09/11 13:35:28;;;;;;;7.13;5.00;;;20.10;99.90;;;;;;10230459;29;20238;-92
2022/09/11 13:40:42;;;;;;;6.72;5.35;;;20.80;99.90;;;;;;10246804;28;20234;-91
2022/09/11 13:45:45;;;;;;;5.30;4.45;;;21.80;99.90;;;;;;10232442;28;20238;-92
2022/09/11 13:50:49;;;;;;;10.27;5.53;;;21.90;99.90;;;;;;10247418;28;20308;-92
2022/09/11 13:55:51;;;;;;;5.43;3.88;;;18.80;99.90;;;;;;10228912;29;20225;-91
2022/09/11 14:00:54;;;;;;;6.10;5.20;;;18.80;99.90;;;;;;10229492;28;20273;-93
2022/09/11 14:06:15;;;;;;;5.00;4.22;;;19.90;99.90;;;;;;10228153;29;20238;-92
2022/09/11 14:11:27;;;;;;;8.52;4.97;;;20.30;99.90;;;;;;10242972;28;20304;-93
2022/09/11 14:16:34;;;;;;;4.63;4.15;;;20.40;99.90;;;;;;10211016;29;20246;-93
2022/09/11 14:21:38;;;;;;;6.00;5.45;;;;;;;;;;10246378;28;20297;-94
2022/09/11 14:26:41;;;;;;;5.70;5.05;;;19.90;99.90;;;;;;10243300;28;20269;-92
2022/09/11 14:31:43;;;;;;;5.90;5.30;;;21.00;99.90;;;;;;10222894;29;20301;-92
2022/09/11 14:36:57;;;;;;;5.70;5.10;;;20.60;99.90;;;;;;10225169;29;20234;-92
2022/09/11 14:42:00;;;;;;;6.13;5.05;;;20.40;99.90;;;;;;10223733;29;20320;-92
2022/09/11 14:47:03;;;;;;;5.00;4.53;;;21.20;99.90;;;;;;10227476;29;20229;-93
2022/09/11 14:52:08;;;;;;;4.90;4.50;;;20.10;99.90;;;;;;10246045;29;20257;-93
2022/09/11 14:57:16;;;;;;;7.05;3.92;;;20.90;99.90;;;;;;10231420;28;20258;-93
2022/09/11 15:02:29;;;;;;;7.43;4.75;;;19.50;99.90;;;;;;10229434;29;20187;-96
2022/09/11 15:13:27;;;;;;;4.40;3.67;;;18.40;99.90;;;;;;10228855;23;20274;-93
2022/09/11 15:18:33;;;;;;;4.85;3.95;;;19.80;99.90;;;;;;10196589;29;20836;-92
2022/09/11 15:23:36;;;;;;;4.38;3.78;;;20.00;99.90;;;;;;10201595;29;20214;-93
2022/09/11 15:28:39;;;;;;;4.43;4.03;;;20.70;99.90;;;;;;10211755;29;20278;-93
2022/09/11 15:33:41;;;;;;;4.45;3.78;;;20.70;99.90;;;;;;10252235;28;20277;-93
2022/09/11 15:38:51;;;;;;;5.80;3.47;;;19.80;99.90;;;;;;10225234;29;20282;-94
2022/09/11 15:43:56;;;;;;;4.47;3.60;;;20.10;99.90;;;;;;10196298;29;20246;-93
2022/09/11 15:49:01;;;;;;;5.78;4.05;;;20.10;99.90;;;;;;10195146;29;20269;-92
2022/09/11 15:54:05;;;;;;;5.32;4.53;;;20.50;99.90;;;;;;10208659;29;20262;-92
2022/09/11 15:59:11;;;;;;;4.72;3.63;;;20.50;99.90;;;;;;10210686;29;20276;-91
2022/09/11 16:04:19;;;;;;;5.28;4.22;;;21.00;99.90;;;;;;10212431;29;20239;-92
2022/09/11 16:09:27;;;;;;;4.38;3.88;;;20.20;99.90;;;;;;10195048;29;20321;-91
2022/09/11 16:14:37;;;;;;;4.40;3.95;;;20.70;99.90;;;;;;10212693;29;20969;-93
2022/09/11 16:19:39;;;;;;;5.95;4.65;;;20.70;99.90;;;;;;10211757;29;20254;-91
2022/09/11 16:24:42;;;;;;;4.07;3.67;;;20.20;99.90;;;;;;10194751;29;20280;-92
2022/09/11 16:29:45;;;;;;;4.95;4.43;;;20.60;99.90;;;;;;10211343;29;20207;-91
2022/09/11 16:35:12;;;;;;;4.70;4.20;;;20.60;99.90;;;;;;10198626;29;20242;-91
2022/09/11 16:40:15;;;;;;;4.65;4.13;;;20.60;99.90;;;;;;10195224;29;20611;-91
2022/09/11 16:45:19;;;;;;;4.90;4.03;;;20.40;99.90;;;;;;10196071;29;20215;-91
2022/09/11 16:50:22;;;;;;;4.13;3.72;;;20.90;99.90;;;;;;10195297;29;20270;-92
2022/09/11 16:55:24;;;;;;;5.50;4.22;;;21.00;99.90;;;;;;10210840;29;20218;-92
2022/09/11 17:00:27;;;;;;;5.25;4.75;;;21.00;99.90;;;;;;10212464;29;20199;-92
2022/09/11 17:05:30;;;;;;;4.88;4.38;;;21.10;99.90;;;;;;10193417;29;20624;-92
2022/09/11 17:10:32;;;;;;;4.82;4.32;;;20.90;99.90;;;;;;10195659;29;20234;-92
2022/09/11 17:15:35;;;;;;;6.40;4.55;;;21.00;99.90;;;;;;10212569;29;20279;-92
2022/09/11 17:20:38;;;;;;;6.57;4.53;;;18.40;99.90;;;;;;10211055;29;20227;-91
2022/09/11 17:25:40;;;;;;;3.70;3.40;;;20.40;99.90;;;;;;10189482;29;20215;-91
2022/09/11 17:30:43;;;;;;;4.53;3.88;;;20.70;99.90;;;;;;10192816;29;20292;-92
2022/09/11 17:35:46;;;;;;;4.88;4.38;;;20.80;99.90;;;;;;10177517;29;20219;-92
2022/09/11 17:40:48;;;;;;;4.50;3.95;;;20.90;99.90;;;;;;10186079;29;20207;-92
2022/09/11 17:45:51;;;;;;;4.78;4.38;;;20.90;99.90;;;;;;10167896;29;20207;-92
2022/09/11 17:51:05;;;;;;;6.80;3.83;;;20.90;99.90;;;;;;10231947;28;20226;-91
2022/09/11 17:56:11;;;;;;;5.82;4.07;;;20.90;99.90;;;;;;10192331;29;20203;-91
2022/09/11 18:01:13;;;;;;;5.63;4.43;;;20.90;99.90;;;;;;10180682;29;20959;-93
2022/09/11 18:06:24;;;;;;;4.78;3.70;;;20.90;99.90;;;;;;10194539;29;20266;-92
2022/09/11 18:11:28;;;;;;;4.88;4.25;;;20.90;99.90;;;;;;10207503;29;20235;-92
2022/09/11 18:16:30;;;;;;;4.75;4.10;;;21.00;99.90;;;;;;10253072;28;20207;-92
2022/09/11 18:21:33;;;;;;;4.82;4.22;;;21.00;99.90;;;;;;10281091;28;20210;-93
2022/09/11 18:26:40;;;;;;;4.32;3.92;;;21.00;99.90;;;;;;10282445;28;20182;-92
2022/09/11 18:31:46;;;;;;;4.38;3.97;;;20.90;99.90;;;;;;10237355;29;20235;-91
2022/09/11 18:36:49;;;;;;;4.50;4.10;;;21.00;99.90;;;;;;10252185;29;20184;-93
2022/09/11 18:41:51;;;;;;;4.53;4.13;;;20.90;99.90;;;;;;10212265;29;20227;-95
2022/09/11 18:46:54;;;;;;;4.38;4.07;;;21.00;99.90;;;;;;10235966;29;20227;-93
2022/09/11 18:51:57;;;;;;;4.50;4.10;;;21.00;99.90;;;;;;10240574;29;20227;-92
2022/09/11 18:57:02;;;;;;;4.10;3.70;;;20.90;99.90;;;;;;10263602;28;20238;-92
2022/09/11 19:02:05;;;;;;;5.00;4.50;;;21.00;99.90;;;;;;10264854;28;20600;-90
2022/09/11 19:07:08;;;;;;;5.18;4.32;;;20.90;99.90;;;;;;10263631;28;20196;-92
2022/09/11 19:12:11;;;;;;;3.95;3.65;;;20.90;99.90;;;;;;10265548;28;20246;-93
2022/09/11 19:17:13;;;;;;;4.68;3.97;;;20.50;99.90;;;;;;10250677;29;20204;-92
2022/09/11 19:22:16;;;;;;;5.25;4.22;;;20.90;99.90;;;;;;10261600;28;20195;-92
2022/09/11 19:27:19;;;;;;;4.93;4.20;;;20.80;99.90;;;;;;10262550;29;20187;-92
2022/09/11 19:32:22;;;;;;;5.63;3.92;;;20.90;99.90;;;;;;10276632;28;20219;-92
2022/09/11 19:37:26;;;;;;;4.57;4.10;;;17.60;99.90;;;;;;10286663;28;20430;-92
2022/09/11 19:42:29;;;;;;;5.00;4.15;;;20.10;99.90;;;;;;10221217;28;20226;-92
2022/09/11 19:47:32;;;;;;;5.20;4.70;;;20.40;99.90;;;;;;10244868;28;20183;-91
2022/09/11 19:52:36;;;;;;;4.40;4.00;;;20.60;99.90;;;;;;10278109;28;20239;-92
2022/09/11 19:57:38;;;;;;;4.00;3.65;;;20.50;99.90;;;;;;10286935;28;20195;-92
2022/09/11 20:02:43;;;;;;;4.60;4.10;;;20.80;99.90;;;;;;10259837;28;20188;-92
2022/09/11 20:07:46;;;;;;;5.78;4.63;;;20.70;99.90;;;;;;10245543;28;20232;-92
2022/09/11 20:12:49;;;;;;;4.80;4.25;;;20.20;99.90;;;;;;10235958;28;20227;-93
2022/09/11 20:17:51;;;;;;;5.22;4.72;;;20.80;99.90;;;;;;10248183;28;20183;-93
2022/09/11 20:22:54;;;;;;;4.93;4.43;;;20.80;99.90;;;;;;10248297;28;20215;-93
2022/09/11 20:28:00;;;;;;;4.35;3.95;;;20.90;99.90;;;;;;10281391;28;20178;-95
2022/09/11 20:33:03;;;;;;;6.57;4.90;;;20.90;99.90;;;;;;10227678;28;20244;-93
2022/09/11 20:38:06;;;;;;;5.63;4.60;;;20.90;99.90;;;;;;10243214;29;20290;-93
2022/09/11 20:43:09;;;;;;;7.05;3.92;;;20.80;99.90;;;;;;10208380;29;20211;-93
2022/09/11 20:48:12;;;;;;;4.60;4.20;;;20.90;99.90;;;;;;10210442;29;20255;-93
2022/09/11 20:53:15;;;;;;;4.75;4.35;;;19.20;99.90;;;;;;10217674;29;20238;-94
2022/09/11 20:58:17;;;;;;;5.63;4.95;;;20.50;99.90;;;;;;10185612;29;20772;-93
2022/09/11 21:03:19;;;;;;;4.80;4.30;;;20.70;99.90;;;;;;10211329;29;20207;-93
2022/09/11 21:08:24;;;;;;;6.28;4.35;;;20.70;99.90;;;;;;10212679;29;20206;-93
2022/09/11 21:13:27;;;;;;;4.60;4.18;;;20.80;99.90;;;;;;10222525;29;20246;-93
2022/09/11 21:18:29;;;;;;;5.07;4.60;;;20.80;99.90;;;;;;10185913;29;20592;-93
2022/09/11 21:23:32;;;;;;;5.22;4.72;;;20.80;99.90;;;;;;10205487;29;20218;-93
2022/09/11 21:28:34;;;;;;;5.05;4.65;;;20.80;99.90;;;;;;10222050;29;20613;-93
2022/09/11 21:33:37;;;;;;;6.10;4.63;;;20.80;99.90;;;;;;10206835;29;20223;-92
2022/09/11 21:38:39;;;;;;;5.90;5.30;;;20.80;99.90;;;;;;10220624;29;20195;-93
2022/09/11 21:43:42;;;;;;;4.90;4.50;;;20.80;99.90;;;;;;10204624;29;20895;-93
2022/09/11 21:48:45;;;;;;;4.75;4.35;;;20.80;99.90;;;;;;10195561;29;20846;-93
2022/09/11 21:53:53;;;;;;;4.88;4.47;;;20.70;99.90;;;;;;10220200;29;20228;-94
2022/09/11 21:58:56;;;;;;;5.80;5.25;;;20.80;99.90;;;;;;10202481;29;20219;-93
2022/09/11 22:03:59;;;;;;;5.25;4.75;;;20.70;99.90;;;;;;10219390;29;20273;-93
2022/09/11 22:09:02;;;;;;;6.90;4.80;;;20.80;99.90;;;;;;10220335;28;20207;-92
2022/09/11 22:14:04;;;;;;;4.55;4.25;;;20.60;99.90;;;;;;10218509;29;20219;-93
2022/09/11 22:19:08;;;;;;;4.80;4.25;;;20.70;99.90;;;;;;10228687;28;20238;-93
2022/09/11 22:24:10;;;;;;;5.55;5.05;;;20.70;99.90;;;;;;10242336;28;20249;-93
2022/09/11 22:29:13;;;;;;;5.75;5.15;;;20.70;99.90;;;;;;10231990;28;20616;-93
2022/09/11 22:34:15;;;;;;;5.20;4.70;;;20.70;99.90;;;;;;10248645;29;20261;-94
2022/09/11 22:39:18;;;;;;;4.85;4.40;;;20.70;99.90;;;;;;10231346;29;20199;-92
2022/09/11 22:44:20;;;;;;;5.10;4.60;;;20.70;99.90;;;;;;10214088;29;20215;-92
2022/09/11 22:49:23;;;;;;;5.28;4.38;;;20.70;99.90;;;;;;10198666;29;20211;-93
2022/09/11 22:54:25;;;;;;;5.18;4.63;;;20.50;99.90;;;;;;10203880;29;20651;-92
2022/09/11 22:59:28;;;;;;;4.93;4.43;;;20.70;99.90;;;;;;10203907;29;20207;-92
2022/09/11 23:04:31;;;;;;;5.78;5.15;;;20.70;99.90;;;;;;10219646;29;20207;-92
2022/09/11 23:09:36;;;;;;;4.50;4.10;;;20.70;99.90;;;;;;10200430;29;20676;-92
2022/09/11 23:14:39;;;;;;;4.32;3.85;;;20.70;99.90;;;;;;10198926;29;20259;-93
2022/09/11 23:19:41;;;;;;;5.22;4.78;;;20.70;99.90;;;;;;10216114;29;20257;-92
2022/09/11 23:24:44;;;;;;;5.65;5.10;;;20.70;99.90;;;;;;10213177;29;20318;-92
2022/09/11 23:29:46;;;;;;;5.07;4.57;;;20.60;99.90;;;;;;10160977;29;20672;-92
2022/09/11 23:34:49;;;;;;;4.72;4.32;;;20.40;99.90;;;;;;10163069;29;20251;-93
2022/09/11 23:39:51;;;;;;;4.93;4.18;;;20.60;99.90;;;;;;10197743;29;20227;-94
2022/09/11 23:44:54;;;;;;;6.30;5.45;;;20.60;99.90;;;;;;10177531;29;20266;-93
2022/09/11 23:49:57;;;;;;;5.28;4.78;;;20.60;99.90;;;;;;10160038;29;20227;-92
2022/09/11 23:54:59;;;;;;;5.18;4.68;;;20.60;99.90;;;;;;10174674;29;20310;-92
